Time;durP1;ratioP1;P1;durP2;ratioP2;P2;SDS_P1;SDS_P2;PMS_P1;PMS_P2;Temp;Humidity;BMP_temperature;BMP_pressure;BME280_temperature;BME280_humidity;BME280_pressure;Samples;Min_cycle;Max_cycle;Signal;HPM_P1;HPM_P2
2021/08/22 00:02:04;;;;;;;25.85;19.58;;;;;;;16.58;59.76;98783.94;5024980;28;20048;-71
2021/08/22 00:04:29;;;;;;;25.42;18.52;;;;;;;16.57;59.99;98792.56;5013071;28;20026;-71
2021/08/22 00:06:55;;;;;;;26.73;18.85;;;;;;;16.52;60.04;98783.28;5013109;28;20033;-71
2021/08/22 00:09:21;;;;;;;29.65;19.52;;;;;;;16.51;60.19;98784.44;4995273;28;20029;-71
2021/08/22 00:11:46;;;;;;;27.45;19.42;;;;;;;16.50;60.26;98784.78;5012363;28;20104;-71
2021/08/22 00:14:11;;;;;;;28.65;19.50;;;;;;;16.50;59.97;98784.78;5012482;28;20042;-71
2021/08/22 00:16:38;;;;;;;26.73;19.20;;;;;;;16.50;60.09;98782.00;4994102;28;20157;-70
2021/08/22 00:19:04;;;;;;;30.35;20.80;;;;;;;16.48;60.51;98782.31;5009826;28;20525;-70
2021/08/22 00:21:29;;;;;;;27.10;19.65;;;;;;;16.48;60.52;98785.09;5007341;28;20021;-68
2021/08/22 00:23:54;;;;;;;26.13;20.25;;;;;;;16.45;60.39;98782.97;5016090;28;20029;-70
2021/08/22 00:26:20;;;;;;;28.00;21.15;;;;;;;16.44;60.84;98775.00;5012758;28;20040;-70
2021/08/22 00:28:45;;;;;;;28.73;21.02;;;;;;;16.43;60.39;98771.41;5012293;28;20097;-70
2021/08/22 00:31:11;;;;;;;29.52;20.75;;;;;;;16.44;60.40;98777.78;5011468;28;20505;-71
2021/08/22 00:33:36;;;;;;;28.30;20.25;;;;;;;16.41;60.45;98775.66;5012327;28;20064;-69
2021/08/22 00:36:01;;;;;;;29.30;20.33;;;;;;;16.40;60.45;98772.06;5020968;28;20079;-69
2021/08/22 00:38:27;;;;;;;27.52;19.98;;;;;;;16.38;60.90;98768.81;5010539;28;20068;-69
2021/08/22 00:40:52;;;;;;;30.00;21.10;;;;;;;16.35;60.70;98777.75;4996959;28;20054;-70
2021/08/22 00:43:18;;;;;;;28.83;21.00;;;;;;;16.33;61.07;98780.03;4995843;28;20455;-70
2021/08/22 00:45:43;;;;;;;31.70;20.45;;;;;;;16.31;61.07;98783.16;4981446;28;20028;-70
2021/08/22 00:48:10;;;;;;;27.98;20.80;;;;;;;16.30;60.77;98787.06;5012267;28;20475;-70
2021/08/22 00:50:37;;;;;;;32.47;21.95;;;;;;;16.28;61.02;98788.53;5012117;28;20037;-70
2021/08/22 00:53:04;;;;;;;28.90;20.90;;;;;;;16.27;61.09;98782.19;5010832;28;20151;-70
2021/08/22 00:55:29;;;;;;;28.75;21.30;;;;;;;16.26;61.22;98777.78;5010430;28;20042;-70
2021/08/22 00:57:55;;;;;;;31.88;22.33;;;;;;;16.21;61.38;98781.53;5006739;28;20112;-70
2021/08/22 01:00:20;;;;;;;29.33;20.75;;;;;;;16.16;61.03;98778.94;5016329;28;20064;-70
2021/08/22 01:03:36;;;;;;;31.70;21.98;;;;;;;16.14;61.38;98775.66;5018526;28;20026;-70
2021/08/22 01:06:26;;;;;;;29.83;21.40;;;;;;;16.12;61.08;98775.19;4955695;29;20563;-70
2021/08/22 01:09:05;;;;;;;32.33;21.38;;;;;;;16.12;61.39;98771.59;4955435;29;20046;-71
2021/08/22 01:11:35;;;;;;;30.92;21.63;;;;;;;16.11;61.03;98770.78;5002046;28;20041;-70
2021/08/22 01:14:09;;;;;;;32.42;22.05;;;;;;;16.11;61.41;98768.03;4998196;28;20046;-70
2021/08/22 01:16:42;;;;;;;31.88;22.20;;;;;;;16.12;61.36;98774.34;5002635;28;20044;-73
2021/08/22 01:19:21;;;;;;;32.17;22.50;;;;;;;16.12;61.62;98771.59;5010064;28;20029;-73
2021/08/22 01:21:47;;;;;;;31.52;21.67;;;;;;;16.11;61.64;98772.72;5009466;28;20083;-72
2021/08/22 01:24:18;;;;;;;30.13;21.67;;;;;;;16.10;61.50;98771.13;5012025;28;20052;-72
2021/08/22 01:26:45;;;;;;;32.00;22.73;;;;;;;16.08;61.70;98763.13;5001622;28;20026;-73
2021/08/22 01:29:13;;;;;;;34.03;23.95;;;;;;;16.06;61.28;98771.78;4997779;28;20030;-72
2021/08/22 01:31:50;;;;;;;31.92;22.65;;;;;;;16.05;61.61;98763.78;5015610;28;20517;-73
2021/08/22 01:34:16;;;;;;;32.45;21.58;;;;;;;16.03;61.24;98766.88;5002721;28;20030;-72
2021/08/22 01:36:43;;;;;;;32.72;22.27;;;;;;;16.01;61.76;98765.56;4995385;28;20513;-73
2021/08/22 01:39:10;;;;;;;33.28;21.77;;;;;;;15.99;61.84;98765.09;5012550;28;20693;-71
2021/08/22 01:41:36;;;;;;;30.40;21.83;;;;;;;15.97;61.44;98761.81;5014937;28;20482;-73
2021/08/22 01:44:02;;;;;;;32.13;21.65;;;;;;;15.95;61.68;98761.34;4997670;28;20049;-72
2021/08/22 01:46:30;;;;;;;30.55;21.40;;;;;;;15.92;61.58;98760.03;5015297;28;20088;-73
2021/08/22 01:48:57;;;;;;;32.28;23.17;;;;;;;15.89;62.07;98761.53;5000017;28;20042;-72
2021/08/22 01:51:32;;;;;;;31.92;21.83;;;;;;;15.87;61.74;98760.19;4995176;28;20541;-73
2021/08/22 01:53:59;;;;;;;28.40;20.42;;;;;;;15.86;61.80;98761.31;4996094;28;20027;-73
2021/08/22 01:56:30;;;;;;;31.80;22.88;;;;;;;15.84;61.58;98753.34;5014976;28;20025;-72
2021/08/22 01:58:56;;;;;;;34.72;21.70;;;;;;;15.85;62.23;98754.97;5014682;28;20037;-71
2021/08/22 02:01:22;;;;;;;29.38;21.17;;;;;;;15.84;61.89;98750.59;5013512;28;20034;-73
2021/08/22 02:03:51;;;;;;;31.50;21.88;;;;;;;15.84;62.28;98749.75;4996446;28;20026;-72
2021/08/22 02:06:19;;;;;;;;;;;;;;;15.82;61.77;98752.03;4996043;28;20034;-72
2021/08/22 02:08:51;;;;;;;30.55;21.38;;;;;;;15.82;62.21;98760.31;5014435;28;19913;-73
2021/08/22 02:11:32;;;;;;;31.33;22.63;;;;;;;15.81;62.08;98753.16;5012663;28;20105;-72
2021/08/22 02:13:58;;;;;;;30.63;21.42;;;;;;;15.77;62.23;98747.47;4988470;28;20092;-72
2021/08/22 02:16:28;;;;;;;30.50;21.67;;;;;;;15.78;62.34;98751.88;5022257;28;20481;-72
2021/08/22 02:18:56;;;;;;;28.60;20.50;;;;;;;15.77;62.01;98747.47;5003273;28;20029;-72
2021/08/22 02:21:22;;;;;;;31.33;21.85;;;;;;;15.77;62.05;98755.78;5018447;28;20022;-72
2021/08/22 02:23:50;;;;;;;31.10;21.80;;;;;;;15.73;62.24;98755.59;5017764;28;20128;-73
2021/08/22 02:26:18;;;;;;;28.70;21.20;;;;;;;15.71;62.27;98752.34;5014379;28;20115;-72
2021/08/22 02:28:43;;;;;;;31.52;20.98;;;;;;;15.70;62.08;98749.91;5009829;28;20379;-72
2021/08/22 02:31:11;;;;;;;27.55;20.65;;;;;;;15.68;62.58;98750.25;5024094;28;20028;-72
2021/08/22 02:33:37;;;;;;;28.83;20.42;;;;;;;15.64;62.02;98749.25;5022307;28;20101;-72
2021/08/22 02:36:02;;;;;;;29.50;20.85;;;;;;;15.59;62.07;98746.66;5019855;28;20117;-72
2021/08/22 02:38:28;;;;;;;27.35;20.60;;;;;;;15.56;62.37;98741.75;5011720;28;20386;-72
2021/08/22 02:40:53;;;;;;;28.02;20.27;;;;;;;15.54;62.44;98738.50;5014432;28;20029;-72
2021/08/22 02:43:18;;;;;;;26.95;20.55;;;;;;;15.45;62.38;98738.50;5013615;28;20029;-72
2021/08/22 02:45:44;;;;;;;29.67;21.83;;;;;;;15.42;62.82;98734.41;5014507;28;20025;-71
2021/08/22 02:48:09;;;;;;;29.67;21.02;;;;;;;15.42;62.78;98742.69;5014155;28;20486;-72
2021/08/22 02:50:35;;;;;;;29.55;21.13;;;;;;;15.41;62.63;98730.00;4995028;28;20041;-72
2021/08/22 02:53:00;;;;;;;28.52;20.85;;;;;;;15.38;62.91;98730.66;4997709;28;20045;-72
2021/08/22 02:55:26;;;;;;;27.77;21.77;;;;;;;15.35;62.96;98727.72;4994796;28;20035;-71
2021/08/22 02:57:51;;;;;;;31.05;21.90;;;;;;;15.36;63.01;98721.06;4995012;28;20076;-73
2021/08/22 03:00:17;;;;;;;29.10;21.15;;;;;;;15.33;63.04;98720.56;4994915;28;20030;-73
2021/08/22 03:02:43;;;;;;;31.75;21.40;;;;;;;15.21;62.90;98727.88;4984586;28;20080;-73
2021/08/22 03:05:08;;;;;;;28.33;20.67;;;;;;;15.11;63.30;98721.50;5013716;28;20062;-72
2021/08/22 03:07:34;;;;;;;30.88;20.90;;;;;;;15.07;63.27;98719.69;5014349;28;20428;-72
2021/08/22 03:09:59;;;;;;;32.85;22.30;;;;;;;15.06;63.72;98718.06;5012535;28;20026;-72
2021/08/22 03:12:25;;;;;;;32.08;22.65;;;;;;;15.05;63.71;98720.00;5014327;28;20061;-73
2021/08/22 03:14:50;;;;;;;32.72;22.42;;;;;;;15.10;63.75;98721.78;5013089;28;20084;-72
2021/08/22 03:17:16;;;;;;;34.20;22.17;;;;;;;15.06;63.80;98721.63;5013954;28;20026;-72
2021/08/22 03:19:41;;;;;;;31.13;21.38;;;;;;;15.10;63.93;98724.56;4996592;28;20068;-72
2021/08/22 03:22:06;;;;;;;33.30;22.02;;;;;;;15.14;64.03;98725.53;5003644;28;20068;-72
2021/08/22 03:24:32;;;;;;;32.15;22.27;;;;;;;15.05;64.09;98708.94;5005369;28;20045;-71
2021/08/22 03:26:57;;;;;;;29.92;21.13;;;;;;;14.99;63.91;98713.00;5014070;28;20079;-72
2021/08/22 03:29:23;;;;;;;33.33;22.08;;;;;;;15.00;64.08;98715.44;4998717;28;20815;-72
2021/08/22 03:31:48;;;;;;;33.22;21.60;;;;;;;14.94;63.92;98719.47;5018140;28;20117;-72
2021/08/22 03:34:14;;;;;;;30.77;21.48;;;;;;;14.93;64.26;98719.78;5022516;28;20057;-72
2021/08/22 03:36:39;;;;;;;28.10;20.65;;;;;;;14.96;64.29;98717.22;5020671;28;20337;-72
2021/08/22 03:39:05;;;;;;;30.35;20.40;;;;;;;15.02;64.34;98721.47;5020673;28;20072;-73
2021/08/22 03:41:33;;;;;;;30.83;21.52;;;;;;;15.05;64.50;98717.25;5000400;28;20033;-72
2021/08/22 03:43:59;;;;;;;29.33;20.58;;;;;;;15.11;64.74;98717.91;5004153;28;20021;-71
2021/08/22 03:46:24;;;;;;;31.77;21.25;;;;;;;15.11;64.61;98712.38;5022628;28;20552;-71
2021/08/22 03:48:49;;;;;;;33.00;21.80;;;;;;;15.15;64.35;98724.41;5021472;28;20033;-70
2021/08/22 03:51:15;;;;;;;30.55;21.05;;;;;;;15.20;64.53;98723.47;5021133;28;20033;-71
2021/08/22 03:53:40;;;;;;;32.28;20.73;;;;;;;15.21;64.30;98725.09;5021387;28;20388;-72
2021/08/22 03:56:06;;;;;;;29.33;21.38;;;;;;;15.19;64.34;98722.63;5021837;28;20038;-72
2021/08/22 03:58:31;;;;;;;31.70;20.65;;;;;;;15.11;64.05;98721.50;5022628;28;20048;-71
2021/08/22 04:00:57;;;;;;;27.88;18.67;;;;;;;15.03;64.15;98720.34;5020485;28;20033;-71
2021/08/22 04:03:22;;;;;;;25.63;19.17;;;;;;;15.02;64.12;98720.63;5021818;28;20033;-71
2021/08/22 04:05:47;;;;;;;27.65;19.75;;;;;;;15.03;64.59;98733.31;5018670;28;20122;-72
2021/08/22 04:08:13;;;;;;;27.05;19.33;;;;;;;15.00;64.68;98728.44;5020750;28;20183;-72
2021/08/22 04:10:38;;;;;;;25.52;18.92;;;;;;;15.05;64.70;98728.28;5022427;28;20026;-72
2021/08/22 04:13:06;;;;;;;25.02;19.88;;;;;;;15.09;64.52;98725.69;5003330;28;20112;-71
2021/08/22 04:15:31;;;;;;;28.58;20.05;;;;;;;15.00;64.42;98729.25;5021509;28;20049;-71
2021/08/22 04:17:57;;;;;;;26.88;19.20;;;;;;;14.97;64.59;98731.81;5003181;28;20030;-72
2021/08/22 04:20:23;;;;;;;24.35;18.30;;;;;;;15.05;64.83;98724.72;5019476;28;20121;-71
2021/08/22 04:22:48;;;;;;;27.08;19.08;;;;;;;15.14;64.62;98720.84;5018377;28;20022;-72
2021/08/22 04:25:14;;;;;;;30.13;19.13;;;;;;;15.18;64.94;98723.78;5017222;28;20509;-71
2021/08/22 04:27:41;;;;;;;23.15;17.92;;;;;;;15.19;64.48;98728.16;5021618;28;20026;-72
2021/08/22 04:30:08;;;;;;;25.08;18.70;;;;;;;15.18;65.02;98721.84;5003456;28;20049;-72
2021/08/22 04:32:34;;;;;;;26.75;18.50;;;;;;;15.07;64.80;98720.50;5018947;28;20528;-71
2021/08/22 04:34:59;;;;;;;25.65;18.75;;;;;;;15.05;64.89;98725.53;5021738;28;20029;-72
2021/08/22 04:37:25;;;;;;;27.45;19.00;;;;;;;15.15;64.67;98716.13;5022543;28;20492;-71
2021/08/22 04:39:50;;;;;;;26.30;18.58;;;;;;;15.18;65.08;98726.53;5020869;28;20022;-72
2021/08/22 04:42:15;;;;;;;24.92;18.38;;;;;;;15.13;64.71;98722.00;5021699;28;20385;-72
2021/08/22 04:44:41;;;;;;;27.38;19.75;;;;;;;15.06;65.29;98713.34;5022376;28;20037;-71
2021/08/22 04:47:06;;;;;;;28.27;19.90;;;;;;;15.03;65.01;98714.81;5016352;28;20441;-72
2021/08/22 04:49:32;;;;;;;28.85;20.15;;;;;;;15.00;65.10;98715.44;5023235;28;20128;-71
2021/08/22 04:51:58;;;;;;;25.25;19.33;;;;;;;15.01;65.89;98710.72;5019345;28;20441;-71
2021/08/22 04:54:25;;;;;;;28.13;20.23;;;;;;;15.05;65.59;98716.44;5017752;28;20025;-71
2021/08/22 04:56:51;;;;;;;26.15;20.00;;;;;;;15.05;66.31;98711.72;5003266;28;20053;-71
2021/08/22 04:59:16;;;;;;;32.58;20.80;;;;;;;15.08;66.04;98707.50;5019449;28;20057;-71
2021/08/22 05:01:42;;;;;;;27.00;20.30;;;;;;;15.12;66.04;98714.84;5021915;28;20036;-71
2021/08/22 05:04:07;;;;;;;27.65;20.15;;;;;;;15.14;66.00;98712.56;5019445;28;20142;-72
2021/08/22 05:06:32;;;;;;;28.25;21.65;;;;;;;15.16;66.66;98707.53;5020673;28;20473;-71
2021/08/22 05:08:58;;;;;;;31.13;24.05;;;;;;;15.28;66.79;98717.97;5022081;28;20024;-71
2021/08/22 05:11:23;;;;;;;28.58;21.42;;;;;;;15.30;66.70;98710.16;5019472;28;20072;-72
2021/08/22 05:13:49;;;;;;;31.60;20.83;;;;;;;15.31;67.05;98714.56;5021885;28;20041;-71
2021/08/22 05:16:14;;;;;;;29.00;20.67;;;;;;;15.32;66.89;98705.13;5022466;28;20033;-71
2021/08/22 05:18:39;;;;;;;27.42;19.70;;;;;;;15.33;67.46;98700.41;5020362;28;20022;-72
2021/08/22 05:21:05;;;;;;;27.15;19.73;;;;;;;15.38;67.31;98702.22;5019167;28;20028;-72
2021/08/22 05:23:31;;;;;;;27.38;19.35;;;;;;;15.52;67.98;98707.59;5019174;28;20376;-72
2021/08/22 05:25:56;;;;;;;25.67;19.67;;;;;;;15.60;67.68;98706.81;5003585;28;20072;-71
2021/08/22 05:28:22;;;;;;;27.90;19.83;;;;;;;15.70;67.83;98708.44;5020684;28;20053;-72
2021/08/22 05:30:47;;;;;;;25.52;18.95;;;;;;;15.79;67.89;98717.56;5021310;28;20022;-72
2021/08/22 05:33:13;;;;;;;28.92;19.10;;;;;;;15.84;67.40;98713.78;5002778;28;20071;-72
2021/08/22 05:35:38;;;;;;;24.40;18.55;;;;;;;15.93;67.68;98718.22;5021895;28;20052;-72
2021/08/22 05:38:07;;;;;;;23.08;18.63;;;;;;;15.99;67.47;98716.13;5020636;28;20390;-71
2021/08/22 05:40:33;;;;;;;27.45;18.75;;;;;;;16.07;67.60;98711.72;5002806;28;20078;-72
2021/08/22 05:42:59;;;;;;;27.05;18.25;;;;;;;16.11;67.39;98717.38;5020205;28;20182;-72
2021/08/22 05:45:24;;;;;;;25.13;18.38;;;;;;;16.17;67.57;98718.84;5004551;28;20119;-72
2021/08/22 05:47:49;;;;;;;24.50;18.13;;;;;;;16.21;67.92;98717.06;5024785;28;20022;-72
2021/08/22 05:50:15;;;;;;;24.20;17.23;;;;;;;16.24;67.44;98710.88;5023665;28;20033;-72
2021/08/22 05:52:40;;;;;;;22.13;17.70;;;;;;;16.31;67.50;98715.91;5025705;28;20480;-72
2021/08/22 05:55:07;;;;;;;22.98;17.95;;;;;;;16.48;67.94;98723.38;5024305;28;20112;-72
2021/08/22 05:57:34;;;;;;;24.25;17.50;;;;;;;16.56;67.56;98717.00;5024929;28;20036;-71
2021/08/22 06:00:00;;;;;;;21.38;17.88;;;;;;;16.64;67.47;98715.34;5001432;28;20382;-73
2021/08/22 06:02:26;;;;;;;25.33;17.33;;;;;;;16.69;67.63;98715.19;5023992;28;20030;-72
2021/08/22 06:04:51;;;;;;;23.80;17.17;;;;;;;16.74;67.08;98709.44;5023120;28;20030;-73
2021/08/22 06:07:19;;;;;;;21.77;17.27;;;;;;;16.86;67.42;98711.53;5023288;28;20112;-71
2021/08/22 06:09:46;;;;;;;22.50;16.98;;;;;;;16.95;67.62;98712.28;5006439;28;20037;-71
2021/08/22 06:12:12;;;;;;;20.88;16.73;;;;;;;17.04;67.09;98714.25;5021035;28;20049;-72
2021/08/22 06:14:37;;;;;;;23.17;17.40;;;;;;;17.08;67.16;98715.19;5023264;28;20037;-72
2021/08/22 06:17:03;;;;;;;20.77;16.80;;;;;;;17.17;67.19;98710.44;5024597;28;20029;-72
2021/08/22 06:19:28;;;;;;;24.80;17.15;;;;;;;17.32;67.54;98706.28;5024275;28;20022;-71
2021/08/22 06:21:53;;;;;;;22.45;16.88;;;;;;;17.38;67.48;98704.94;5005680;28;20017;-72
2021/08/22 06:24:19;;;;;;;19.80;15.80;;;;;;;17.40;67.27;98708.19;5023491;28;20022;-72
2021/08/22 06:26:44;;;;;;;19.30;15.50;;;;;;;17.44;66.96;98708.31;5022799;28;20053;-72
2021/08/22 06:29:11;;;;;;;20.25;15.20;;;;;;;17.54;66.90;98710.69;5023853;28;20102;-71
2021/08/22 06:31:36;;;;;;;18.17;14.73;;;;;;;17.65;66.87;98704.75;5020655;28;20060;-72
2021/08/22 06:34:02;;;;;;;21.17;15.60;;;;;;;17.71;67.02;98703.41;5022789;28;20423;-71
2021/08/22 06:36:27;;;;;;;19.58;14.95;;;;;;;17.79;66.65;98708.06;5023867;28;20029;-72
2021/08/22 06:38:52;;;;;;;20.15;15.18;;;;;;;17.83;67.34;98700.69;5022557;28;20094;-72
2021/08/22 06:41:18;;;;;;;19.48;14.63;;;;;;;17.93;66.67;98704.22;5022779;28;20053;-71
2021/08/22 06:43:43;;;;;;;18.95;14.32;;;;;;;18.05;66.75;98706.25;5021943;28;20025;-71
2021/08/22 06:46:09;;;;;;;16.60;12.77;;;;;;;18.12;66.56;98707.34;5017991;28;20088;-72
2021/08/22 06:48:34;;;;;;;15.52;12.20;;;;;;;18.20;66.29;98707.56;5022274;28;20052;-72
2021/08/22 06:51:01;;;;;;;16.42;11.50;;;;;;;18.27;66.10;98710.63;5006912;28;20493;-71
2021/08/22 06:53:26;;;;;;;14.85;11.48;;;;;;;18.32;65.98;98704.06;5023400;28;20036;-72
2021/08/22 06:55:52;;;;;;;14.82;11.05;;;;;;;18.42;65.88;98707.22;5025312;28;20109;-71
2021/08/22 06:58:17;;;;;;;15.27;11.27;;;;;;;18.53;65.68;98715.91;5019849;28;20057;-71
2021/08/22 07:00:42;;;;;;;14.50;10.90;;;;;;;18.67;65.75;98717.56;5003024;28;20060;-72
2021/08/22 07:03:08;;;;;;;13.40;10.70;;;;;;;18.76;65.24;98715.47;5023381;28;20036;-71
2021/08/22 07:05:34;;;;;;;15.30;10.93;;;;;;;18.84;65.04;98719.31;5023928;28;20021;-71
2021/08/22 07:07:59;;;;;;;12.90;9.85;;;;;;;18.93;64.86;98722.00;5022399;28;20018;-72
2021/08/22 07:10:24;;;;;;;12.80;9.85;;;;;;;18.99;64.63;98715.88;5023785;28;20072;-72
2021/08/22 07:12:50;;;;;;;11.85;10.05;;;;;;;19.03;64.33;98722.38;5021929;28;20033;-72
2021/08/22 07:15:15;;;;;;;13.65;10.27;;;;;;;19.13;64.26;98714.75;5020446;28;20144;-71
2021/08/22 07:17:41;;;;;;;12.20;10.30;;;;;;;19.18;63.87;98720.88;5021704;28;20034;-71
2021/08/22 07:20:07;;;;;;;13.10;9.45;;;;;;;19.21;63.66;98716.59;4996485;28;20030;-72
2021/08/22 07:22:32;;;;;;;11.50;8.55;;;;;;;19.22;63.30;98717.38;4996850;28;20037;-72
2021/08/22 07:24:59;;;;;;;13.75;9.30;;;;;;;19.23;63.30;98716.22;5014522;28;20032;-72
2021/08/22 07:27:25;;;;;;;14.43;10.30;;;;;;;19.28;63.29;98716.00;5008400;28;20110;-72
2021/08/22 07:29:51;;;;;;;13.13;10.60;;;;;;;19.41;63.30;98727.94;5006488;28;20026;-72
2021/08/22 07:32:17;;;;;;;12.75;10.23;;;;;;;19.51;63.42;98721.09;5013630;28;20428;-72
2021/08/22 07:34:42;;;;;;;12.30;10.30;;;;;;;19.61;63.27;98717.81;5013628;28;20502;-72
2021/08/22 07:37:08;;;;;;;13.65;10.45;;;;;;;19.73;62.98;98714.22;5013963;28;20033;-71
2021/08/22 07:39:33;;;;;;;12.25;9.88;;;;;;;19.85;63.28;98719.72;5013464;28;20114;-71
2021/08/22 07:42:00;;;;;;;12.73;10.10;;;;;;;19.98;63.29;98706.59;5012791;28;20029;-72
2021/08/22 07:44:25;;;;;;;13.70;10.40;;;;;;;20.15;63.09;98708.31;5013002;28;20038;-72
2021/08/22 07:46:50;;;;;;;13.75;10.38;;;;;;;20.25;62.95;98709.78;5012396;28;20049;-72
2021/08/22 07:49:18;;;;;;;12.15;10.13;;;;;;;20.33;62.69;98707.97;5013464;28;20030;-71
2021/08/22 07:51:44;;;;;;;12.35;9.38;;;;;;;20.39;62.60;98709.34;5013547;28;20080;-72
2021/08/22 07:54:09;;;;;;;11.23;8.30;;;;;;;20.41;62.10;98709.81;5009888;28;20026;-71
2021/08/22 07:56:39;;;;;;;10.88;8.20;;;;;;;20.47;61.61;98707.56;5013434;28;20026;-71
2021/08/22 07:59:04;;;;;;;11.57;8.80;;;;;;;20.53;61.63;98703.34;5013392;28;20453;-71
2021/08/22 08:01:29;;;;;;;11.57;8.88;;;;;;;20.61;61.28;98705.16;5008763;28;20065;-71
2021/08/22 08:03:55;;;;;;;10.80;8.80;;;;;;;20.67;60.81;98708.47;5012786;28;20034;-71
2021/08/22 08:06:20;;;;;;;11.63;8.95;;;;;;;20.67;61.01;98714.06;5003609;28;20026;-71
2021/08/22 08:08:46;;;;;;;11.65;9.20;;;;;;;20.72;60.98;98715.78;4992734;28;20414;-71
2021/08/22 08:11:11;;;;;;;12.63;8.95;;;;;;;20.77;60.74;98713.56;5003011;28;20081;-70
2021/08/22 08:13:36;;;;;;;14.63;9.52;;;;;;;20.86;60.61;98716.16;5012119;28;20042;-71
2021/08/22 08:16:02;;;;;;;11.07;8.15;;;;;;;20.95;60.55;98711.22;5013064;28;20546;-71
2021/08/22 08:18:29;;;;;;;11.07;8.93;;;;;;;21.04;60.43;98713.03;5012582;28;20022;-70
2021/08/22 08:20:55;;;;;;;11.50;9.07;;;;;;;21.14;60.45;98711.66;5004404;28;20030;-70
2021/08/22 08:23:20;;;;;;;9.88;8.57;;;;;;;21.21;60.28;98711.84;4997167;28;20045;-72
2021/08/22 08:25:46;;;;;;;11.10;9.30;;;;;;;21.25;60.43;98707.97;4994289;28;20042;-71
2021/08/22 08:28:11;;;;;;;10.10;8.40;;;;;;;21.35;60.09;98700.22;5001663;28;20390;-72
2021/08/22 08:30:37;;;;;;;10.65;9.32;;;;;;;21.45;59.75;98701.63;5010684;28;20030;-72
2021/08/22 08:33:02;;;;;;;10.63;9.02;;;;;;;21.55;59.80;98709.44;4994315;28;20495;-72
2021/08/22 08:35:27;;;;;;;9.98;8.88;;;;;;;21.63;59.95;98700.09;4993238;28;20084;-72
2021/08/22 08:37:53;;;;;;;11.60;8.93;;;;;;;21.74;59.72;98699.53;4993042;28;20064;-72
2021/08/22 08:40:22;;;;;;;10.48;9.07;;;;;;;21.84;59.75;98691.38;5005559;28;20109;-72
2021/08/22 08:42:52;;;;;;;;;;;;;;;21.93;59.67;98688.34;5013331;28;20029;-72
2021/08/22 08:45:23;;;;;;;;;;;;;;;22.02;59.27;98685.34;5008590;28;19924;-73
2021/08/22 08:47:51;;;;;;;9.18;7.68;;;;;;;22.08;59.15;98686.66;5012339;28;19917;-73
2021/08/22 08:50:47;;;;;;;9.23;7.38;;;;;;;22.18;58.95;98690.88;4995108;28;20026;-72
2021/08/22 08:53:33;;;;;;;10.38;7.78;;;;;;;22.26;58.73;98689.00;5012599;28;20057;-72
2021/08/22 08:56:09;;;;;;;9.55;7.00;;;;;;;22.36;58.49;98687.59;5011675;28;20569;-72
2021/08/22 08:58:35;;;;;;;7.95;6.85;;;;;;;22.39;57.91;98693.25;5012159;28;20044;-72
2021/08/22 09:01:00;;;;;;;11.00;7.75;;;;;;;22.49;58.24;98685.47;5011389;28;20037;-72
2021/08/22 09:03:26;;;;;;;10.95;7.47;;;;;;;22.58;57.91;98686.84;5012660;28;20030;-73
2021/08/22 09:06:17;;;;;;;10.23;7.93;;;;;;;22.67;57.61;98692.19;5011776;28;20069;-72
2021/08/22 09:09:22;;;;;;;9.80;6.65;;;;;;;22.75;57.38;98690.31;5012018;28;20072;-72
2021/08/22 09:12:25;;;;;;;7.70;6.47;;;;;;;22.84;57.37;98687.25;4991744;28;20046;-72
2021/08/22 09:15:27;;;;;;;6.90;5.70;;;;;;;22.94;56.78;98686.66;4992832;28;20046;-72
2021/08/22 09:18:30;;;;;;;9.07;7.03;;;;;;;23.00;55.60;98685.16;4992942;28;20069;-72
2021/08/22 09:20:55;;;;;;;9.07;6.57;;;;;;;23.03;55.56;98686.38;4990857;28;20042;-72
2021/08/22 09:23:57;;;;;;;9.65;7.10;;;;;;;23.16;55.15;98695.41;5015249;28;20034;-72
2021/08/22 09:26:26;;;;;;;8.85;6.95;;;;;;;23.28;54.92;98700.00;4989856;28;20057;-72
2021/08/22 09:29:29;;;;;;;7.63;6.05;;;;;;;23.38;55.48;98695.75;4997683;28;20102;-72
2021/08/22 09:32:19;;;;;;;8.65;6.13;;;;;;;23.47;55.23;98685.09;5016098;28;20034;-73
2021/08/22 09:35:15;;;;;;;6.65;5.63;;;;;;;23.53;54.99;98683.59;5016167;28;20421;-72
2021/08/22 09:38:18;;;;;;;6.53;5.93;;;;;;;23.64;54.97;98684.53;5014273;28;20040;-73
2021/08/22 09:41:01;;;;;;;6.15;5.55;;;;;;;23.80;54.99;98683.53;5014019;28;20390;-72
2021/08/22 09:44:04;;;;;;;7.30;5.18;;;;;;;23.91;54.09;98686.47;5013912;28;20022;-70
2021/08/22 09:46:48;;;;;;;6.28;5.60;;;;;;;24.02;53.81;98684.63;5015797;28;20041;-71
2021/08/22 09:49:29;;;;;;;7.20;5.70;;;;;;;24.08;53.41;98682.31;5003329;28;20037;-71
2021/08/22 09:52:28;;;;;;;7.07;5.35;;;;;;;24.17;53.67;98671.59;4998239;28;20088;-71
2021/08/22 09:55:30;;;;;;;6.13;5.03;;;;;;;24.25;52.78;98675.28;5015601;28;20026;-71
2021/08/22 09:58:20;;;;;;;6.07;4.68;;;;;;;24.30;52.61;98672.13;5011846;28;20038;-71
2021/08/22 10:00:58;;;;;;;5.03;4.53;;;;;;;24.37;52.57;98671.44;5008127;28;20034;-71
2021/08/22 10:03:57;;;;;;;8.35;6.38;;;;;;;24.44;51.25;98668.72;5004538;28;20037;-70
2021/08/22 10:06:25;;;;;;;9.18;4.80;;;;;;;24.44;50.58;98674.31;4993565;28;20556;-70
2021/08/22 10:09:03;;;;;;;5.83;3.80;;;;;;;24.50;51.02;98669.16;5002535;28;20025;-70
2021/08/22 10:11:37;;;;;;;4.30;3.83;;;;;;;24.60;50.98;98668.47;5015152;28;20030;-71
2021/08/22 10:14:03;;;;;;;4.57;4.07;;;;;;;24.69;50.38;98665.31;5015239;28;20081;-71
2021/08/22 10:16:28;;;;;;;6.05;4.65;;;;;;;24.76;49.89;98664.59;4991891;28;20097;-71
2021/08/22 10:19:03;;;;;;;5.65;4.40;;;;;;;24.81;50.08;98667.88;5007863;28;20390;-70
2021/08/22 10:21:29;;;;;;;5.97;5.15;;;;;;;24.85;48.25;98662.28;5001195;28;20025;-70
2021/08/22 10:23:57;;;;;;;5.00;4.25;;;;;;;24.89;48.90;98660.31;5014901;28;20026;-70
2021/08/22 10:26:45;;;;;;;4.45;3.65;;;;;;;24.96;48.27;98659.56;5014526;28;20475;-72
2021/08/22 10:29:21;;;;;;;5.15;4.10;;;;;;;25.02;47.98;98660.81;5014469;28;20475;-73
2021/08/22 10:31:50;;;;;;;5.90;4.78;;;;;;;25.09;47.47;98668.47;5013295;28;20030;-72
2021/08/22 10:34:22;;;;;;;7.32;5.13;;;;;;;25.12;47.00;98667.69;5013272;28;20105;-72
2021/08/22 10:36:48;;;;;;;5.95;4.40;;;;;;;25.14;46.21;98659.69;5001885;28;20034;-72
2021/08/22 10:39:19;;;;;;;7.60;5.03;;;;;;;25.25;47.17;98662.59;5015008;28;20026;-71
2021/08/22 10:41:45;;;;;;;7.32;4.38;;;;;;;25.36;46.90;98657.03;5007916;28;20045;-72
2021/08/22 10:44:32;;;;;;;5.15;4.00;;;;;;;25.43;44.30;98662.72;5004291;28;20026;-71
2021/08/22 10:46:58;;;;;;;6.18;4.53;;;;;;;25.38;45.36;98658.25;4997847;28;20026;-71
2021/08/22 10:49:52;;;;;;;5.10;4.53;;;;;;;25.49;46.76;98658.34;4989480;28;20037;-71
2021/08/22 10:52:30;;;;;;;6.00;4.28;;;;;;;25.61;46.20;98659.22;4990747;28;20069;-70
2021/08/22 10:55:13;;;;;;;4.40;3.80;;;;;;;25.66;46.44;98656.84;5011105;28;20030;-71
2021/08/22 10:57:42;;;;;;;5.93;3.88;;;;;;;25.80;45.79;98653.28;5011962;28;20041;-71
2021/08/22 11:00:18;;;;;;;5.28;3.70;;;;;;;25.90;45.42;98659.31;5034268;28;20470;-69
2021/08/22 11:02:44;;;;;;;5.15;3.63;;;;;;;25.94;43.94;98658.16;4996094;28;20501;-68
2021/08/22 11:05:15;;;;;;;5.72;4.43;;;;;;;26.03;44.84;98657.78;4989306;28;20034;-68
2021/08/22 11:07:54;;;;;;;5.93;5.35;;;;;;;26.14;45.24;98652.22;5006990;28;20490;-70
2021/08/22 11:10:24;;;;;;;5.15;4.40;;;;;;;26.25;44.11;98650.25;4991140;28;20663;-69
2021/08/22 11:12:51;;;;;;;3.53;3.00;;;;;;;26.35;44.72;98650.69;5001868;28;20026;-69
2021/08/22 11:15:29;;;;;;;4.68;3.22;;;;;;;26.45;44.68;98652.72;5006514;28;20065;-70
2021/08/22 11:17:56;;;;;;;3.88;3.15;;;;;;;26.47;42.92;98646.69;5008044;28;20087;-70
2021/08/22 11:20:26;;;;;;;3.58;3.25;;;;;;;26.51;43.98;98641.88;5017413;28;20030;-70
2021/08/22 11:23:07;;;;;;;4.10;3.47;;;;;;;26.50;44.14;98635.41;5005840;28;20030;-69
2021/08/22 11:25:33;;;;;;;4.88;3.50;;;;;;;26.54;44.15;98643.88;5016517;28;20116;-70
2021/08/22 11:28:07;;;;;;;6.00;3.67;;;;;;;26.59;43.99;98638.66;5031562;28;20033;-70
2021/08/22 11:30:33;;;;;;;4.88;3.72;;;;;;;26.54;43.54;98635.44;5013814;28;20095;-71
2021/08/22 11:32:59;;;;;;;4.63;4.05;;;;;;;26.57;43.37;98634.63;5013040;28;20553;-70